Terminal Aerodrome Forecast
Issued by NWS

Home | Current Version | Previous Version | Text Only | Print | Product List | Glossary On
Versions: 1 2 3 4 5 6 7 8 9 10 11 12 13
780
FTUS43 KLSX 232320
TAFSUS
TAF
KSUS 232320Z 2400/2424 00000KT P6SM SKC
     FM241300 19010KT P6SM FEW250
     FM242000 19013G23KT P6SM SCT250=

USA.gov is the U.S. government's official web portal to all federal, state and local government web resources and services.